Time;durP1;ratioP1;P1;durP2;ratioP2;P2;SDS_P1;SDS_P2;PMS_P1;PMS_P2;Temp;Humidity;BMP_temperature;BMP_pressure;BME280_temperature;BME280_humidity;BME280_pressure;Samples;Min_cycle;Max_cycle;Signal;HPM_P1;HPM_P2
2021/09/20 00:01:13;;;;;;;3.65;2.80;;;;;;;10.41;62.60;102774.72;6314911;28;20225;-70
2021/09/20 00:04:18;;;;;;;2.92;2.72;;;;;;;10.56;62.27;102777.63;6315951;28;20258;-72
2021/09/20 00:07:23;;;;;;;3.22;2.92;;;;;;;10.60;62.85;102773.56;6314603;28;20262;-72
2021/09/20 00:10:27;;;;;;;3.30;3.20;;;;;;;10.68;63.40;102776.28;6314173;28;20648;-72
2021/09/20 00:13:33;;;;;;;2.83;2.72;;;;;;;10.63;62.76;102773.22;6314172;28;20267;-73
2021/09/20 00:16:37;;;;;;;2.60;2.60;;;;;;;10.52;63.09;102781.75;6314202;28;20266;-73
2021/09/20 00:19:41;;;;;;;2.78;2.63;;;;;;;10.43;63.61;102782.75;6314030;28;20480;-72
2021/09/20 00:22:47;;;;;;;2.85;2.75;;;;;;;10.50;63.84;102781.06;6314364;28;20262;-72
2021/09/20 00:25:51;;;;;;;2.92;2.83;;;;;;;10.36;65.23;102787.16;6314186;28;20266;-72
2021/09/20 00:28:55;;;;;;;2.72;2.70;;;;;;;10.50;64.52;102772.88;6313801;28;20262;-72
2021/09/20 00:31:59;;;;;;;2.70;2.60;;;;;;;10.63;63.60;102773.22;6313705;28;20267;-70
2021/09/20 00:35:08;;;;;;;3.13;2.92;;;;;;;10.62;65.17;102776.97;6313701;28;20263;-72
2021/09/20 00:38:17;;;;;;;2.65;2.55;;;;;;;10.70;63.98;102774.22;6313170;28;20545;-71
2021/09/20 00:41:40;;;;;;;2.78;2.67;;;;;;;10.64;65.24;102769.44;6313613;28;20179;-71
2021/09/20 00:44:46;;;;;;;2.83;2.75;;;;;;;10.64;64.25;102769.44;6313385;28;20593;-71
2021/09/20 00:47:50;;;;;;;3.25;3.05;;;;;;;10.59;64.76;102758.19;6313992;28;20258;-71
2021/09/20 00:50:54;;;;;;;2.85;2.78;;;;;;;10.65;65.87;102765.69;6313061;28;20282;-71
2021/09/20 00:54:00;;;;;;;3.10;3.00;;;;;;;10.54;66.08;102760.56;6313111;28;20419;-71
2021/09/20 00:57:05;;;;;;;2.90;2.67;;;;;;;10.44;66.71;102763.47;6313378;28;20262;-71
2021/09/20 01:00:12;;;;;;;3.20;3.00;;;;;;;10.49;66.38;102757.50;6313251;28;20266;-71
2021/09/20 01:03:42;;;;;;;3.83;2.92;;;;;;;10.54;66.21;102763.31;6187491;28;20218;-72
2021/09/20 01:06:51;;;;;;;3.15;2.95;;;;;;;10.50;66.33;102768.25;6189805;28;20266;-72
2021/09/20 01:10:00;;;;;;;2.80;2.80;;;;;;;10.54;66.61;102757.84;6189705;28;20467;-72
2021/09/20 01:13:05;;;;;;;2.97;2.92;;;;;;;10.47;66.70;102754.09;6190720;28;20187;-72
2021/09/20 01:16:11;;;;;;;5.97;3.28;;;;;;;10.50;66.43;102756.50;6189555;28;20187;-71
2021/09/20 01:19:15;;;;;;;3.10;2.90;;;;;;;10.50;66.51;102753.75;6190512;28;20191;-72
2021/09/20 01:22:22;;;;;;;3.75;2.72;;;;;;;10.50;66.70;102751.03;6189485;28;20336;-71
2021/09/20 01:25:28;;;;;;;4.10;3.05;;;;;;;10.35;66.61;102764.47;6190669;28;20315;-71
2021/09/20 01:28:33;;;;;;;2.97;2.88;;;;;;;10.50;67.06;102761.94;6190323;28;20191;-72
2021/09/20 01:31:37;;;;;;;3.28;3.08;;;;;;;10.59;66.28;102760.91;6189151;28;20572;-71
2021/09/20 01:34:41;;;;;;;2.92;2.72;;;;;;;10.48;66.39;102769.44;6188986;28;20226;-72
2021/09/20 01:37:46;;;;;;;3.00;2.90;;;;;;;10.55;67.43;102762.28;6189089;28;20282;-71
2021/09/20 01:40:52;;;;;;;2.83;2.80;;;;;;;10.69;66.77;102762.44;6189333;28;20245;-71
2021/09/20 01:43:56;;;;;;;2.92;2.83;;;;;;;10.65;67.29;102754.78;6190346;28;20238;-71
2021/09/20 01:47:00;;;;;;;3.55;3.20;;;;;;;10.57;68.07;102757.50;6189897;28;20194;-71
2021/09/20 01:50:06;;;;;;;3.03;2.92;;;;;;;10.46;67.76;102760.56;6189089;28;20278;-71
2021/09/20 01:53:10;;;;;;;3.10;3.00;;;;;;;10.37;67.43;102765.19;6190088;28;20226;-72
2021/09/20 01:56:16;;;;;;;2.80;2.70;;;;;;;10.47;67.85;102752.22;6188723;28;20254;-72
2021/09/20 01:59:20;;;;;;;3.70;3.50;;;;;;;10.55;67.37;102754.09;6188632;28;20424;-71
2021/09/20 02:02:24;;;;;;;3.42;3.15;;;;;;;10.68;67.51;102759.91;6204531;28;20237;-71
2021/09/20 02:05:29;;;;;;;3.20;3.10;;;;;;;10.71;67.79;102753.25;6213734;28;20193;-71
2021/09/20 02:08:33;;;;;;;3.15;3.03;;;;;;;10.60;67.22;102762.63;6213665;28;20186;-71
2021/09/20 02:11:40;;;;;;;3.58;3.28;;;;;;;10.64;67.62;102753.94;6213801;28;20240;-71
2021/09/20 02:14:44;;;;;;;3.20;3.10;;;;;;;10.47;67.55;102756.84;6213601;28;20250;-72
2021/09/20 02:17:48;;;;;;;3.50;3.30;;;;;;;10.49;67.92;102760.25;6213117;28;20186;-72
2021/09/20 02:20:52;;;;;;;2.90;2.80;;;;;;;10.42;68.06;102753.75;6212463;28;20189;-71
2021/09/20 02:23:56;;;;;;;3.17;3.08;;;;;;;10.52;67.64;102759.91;6212813;28;20190;-71
2021/09/20 02:27:02;;;;;;;3.13;3.03;;;;;;;10.59;68.64;102763.66;6212946;28;20409;-71
2021/09/20 02:30:08;;;;;;;3.28;3.17;;;;;;;10.64;68.68;102759.38;6212832;28;20249;-72
2021/09/20 02:33:14;;;;;;;3.17;3.08;;;;;;;10.49;67.84;102763.81;6212694;28;20186;-72
2021/09/20 02:36:18;;;;;;;3.10;3.00;;;;;;;10.48;67.92;102759.38;6212235;28;20474;-72
2021/09/20 02:39:22;;;;;;;3.30;3.20;;;;;;;10.62;68.71;102766.03;6212174;28;20208;-72
2021/09/20 02:42:28;;;;;;;3.40;3.30;;;;;;;10.40;68.40;102766.72;6213292;28;20249;-72
2021/09/20 02:45:32;;;;;;;3.30;3.13;;;;;;;10.40;67.98;102750.34;6212029;28;20528;-72
2021/09/20 02:48:37;;;;;;;3.47;3.38;;;;;;;10.49;67.89;102754.78;6213445;28;20217;-72
2021/09/20 02:51:41;;;;;;;2.90;2.65;;;;;;;10.40;68.24;102750.34;6212147;28;20514;-72
2021/09/20 02:54:45;;;;;;;3.30;3.20;;;;;;;10.30;68.73;102755.09;6213290;28;20238;-72
2021/09/20 02:57:51;;;;;;;3.15;3.08;;;;;;;10.36;67.97;102758.00;6213140;28;20186;-72
2021/09/20 03:00:55;;;;;;;3.38;3.17;;;;;;;10.37;68.18;102750.69;6216253;28;20297;-72
2021/09/20 03:03:59;;;;;;;3.13;3.03;;;;;;;10.35;68.18;102763.66;6216862;28;20470;-72
2021/09/20 03:07:04;;;;;;;3.03;2.92;;;;;;;10.39;67.79;102762.28;6218061;28;20193;-72
2021/09/20 03:10:10;;;;;;;3.63;3.42;;;;;;;10.36;67.99;102751.69;6216619;28;20254;-72
2021/09/20 03:13:16;;;;;;;3.70;3.35;;;;;;;10.42;67.32;102756.50;6217520;28;20218;-72
2021/09/20 03:16:20;;;;;;;3.60;3.35;;;;;;;10.28;67.69;102751.69;6216455;28;20218;-72
2021/09/20 03:19:24;;;;;;;3.20;3.03;;;;;;;10.42;67.66;102748.31;6217431;28;20253;-72
2021/09/20 03:22:28;;;;;;;3.67;3.38;;;;;;;10.25;67.79;102762.94;6217646;28;20237;-72
2021/09/20 03:25:33;;;;;;;3.10;3.00;;;;;;;10.17;67.73;102750.13;6216579;28;20265;-72
2021/09/20 03:28:38;;;;;;;3.08;2.97;;;;;;;10.19;67.99;102755.44;6217339;28;20218;-72
2021/09/20 03:31:43;;;;;;;3.97;3.78;;;;;;;10.20;67.26;102748.94;6217488;28;20284;-72
2021/09/20 03:34:47;;;;;;;3.22;3.00;;;;;;;10.35;68.33;102747.28;6217173;28;20222;-72
2021/09/20 03:37:51;;;;;;;4.55;3.10;;;;;;;10.47;66.75;102746.78;6216952;28;20226;-71
2021/09/20 03:40:55;;;;;;;3.53;3.33;;;;;;;10.38;67.16;102745.03;6216901;28;20216;-72
2021/09/20 03:44:00;;;;;;;3.50;3.40;;;;;;;10.22;67.63;102749.66;6216241;28;20249;-72
2021/09/20 03:47:05;;;;;;;3.58;3.30;;;;;;;10.24;66.76;102750.34;6217043;28;20268;-71
2021/09/20 03:50:11;;;;;;;3.20;3.00;;;;;;;10.21;67.31;102756.13;6216850;28;20187;-72
2021/09/20 03:53:15;;;;;;;3.63;3.33;;;;;;;10.27;66.96;102750.00;6216862;28;20217;-72
2021/09/20 03:56:20;;;;;;;3.28;3.10;;;;;;;10.29;67.54;102742.50;6216840;28;20253;-73
2021/09/20 03:59:25;;;;;;;3.50;3.40;;;;;;;10.37;66.76;102756.16;6215521;28;20413;-73
2021/09/20 04:02:29;;;;;;;3.35;3.17;;;;;;;10.30;66.36;102755.09;6215913;28;20488;-72
2021/09/20 04:05:34;;;;;;;3.20;3.10;;;;;;;10.29;66.77;102764.31;6215479;28;20478;-72
2021/09/20 04:08:38;;;;;;;3.33;3.22;;;;;;;10.37;66.52;102761.59;6216782;28;20186;-72
2021/09/20 04:11:42;;;;;;;3.38;3.17;;;;;;;10.32;66.02;102755.81;6213876;28;20524;-72
2021/09/20 04:14:47;;;;;;;3.53;3.42;;;;;;;10.38;66.81;102763.28;6215643;28;20253;-72
2021/09/20 04:17:52;;;;;;;3.95;3.85;;;;;;;10.16;66.47;102763.94;6215082;28;20187;-72
2021/09/20 04:20:57;;;;;;;3.40;3.20;;;;;;;10.27;67.06;102763.63;6216472;28;20190;-72
2021/09/20 04:24:01;;;;;;;3.50;3.40;;;;;;;10.35;66.69;102763.66;6215347;28;20222;-72
2021/09/20 04:27:05;;;;;;;3.60;3.50;;;;;;;10.30;65.79;102766.00;6216223;28;20321;-71
2021/09/20 04:30:12;;;;;;;3.72;3.53;;;;;;;10.30;65.77;102766.00;6214855;28;20217;-71
2021/09/20 04:33:19;;;;;;;3.90;3.42;;;;;;;10.33;66.17;102765.66;6214632;28;20214;-71
2021/09/20 04:36:23;;;;;;;4.10;3.15;;;;;;;10.27;66.75;102777.28;6215917;28;20193;-71
2021/09/20 04:39:27;;;;;;;3.70;3.60;;;;;;;10.25;66.73;102773.84;6215024;28;20218;-71
2021/09/20 04:42:32;;;;;;;3.60;3.50;;;;;;;10.19;66.87;102766.34;6215864;28;20198;-71
2021/09/20 04:45:38;;;;;;;3.33;3.22;;;;;;;10.29;66.60;102764.31;6214489;28;20539;-71
2021/09/20 04:48:42;;;;;;;3.95;3.55;;;;;;;10.36;66.70;102759.88;6215286;28;20186;-72
2021/09/20 04:51:46;;;;;;;3.58;3.38;;;;;;;10.40;65.90;102766.72;6215503;28;20256;-72
2021/09/20 04:54:51;;;;;;;3.28;3.17;;;;;;;10.31;66.11;102767.72;6215546;28;20253;-71
2021/09/20 04:57:58;;;;;;;4.07;3.42;;;;;;;10.42;66.38;102772.88;6215391;28;20285;-72
2021/09/20 05:01:03;;;;;;;4.20;3.75;;;;;;;10.43;66.00;102769.94;6214627;28;20238;-72
2021/09/20 05:04:10;;;;;;;3.35;3.20;;;;;;;10.41;66.18;102773.88;6215260;28;20190;-71
2021/09/20 05:07:14;;;;;;;3.40;3.10;;;;;;;10.39;66.71;102770.47;6213840;28;20193;-72
2021/09/20 05:10:18;;;;;;;3.88;3.67;;;;;;;10.35;66.36;102780.03;6215251;28;20202;-72
2021/09/20 05:13:23;;;;;;;4.05;3.85;;;;;;;10.36;66.82;102776.25;6214893;28;20217;-71
2021/09/20 05:16:28;;;;;;;3.85;3.42;;;;;;;10.53;66.24;102777.97;6213834;28;20254;-71
2021/09/20 05:19:32;;;;;;;3.88;3.67;;;;;;;10.38;66.76;102779.66;6213919;28;20194;-71
2021/09/20 05:22:36;;;;;;;5.18;3.70;;;;;;;10.33;66.48;102793.81;6214103;28;20257;-71
2021/09/20 05:25:40;;;;;;;3.40;3.30;;;;;;;10.37;67.19;102777.97;6214492;28;20193;-71
2021/09/20 05:28:45;;;;;;;4.05;3.60;;;;;;;10.32;67.04;102788.53;6213490;28;20492;-71
2021/09/20 05:31:51;;;;;;;3.75;3.50;;;;;;;10.38;66.95;102785.13;6214660;28;20218;-72
2021/09/20 05:34:55;;;;;;;3.58;3.42;;;;;;;10.46;66.88;102779.66;6213346;28;20418;-71
2021/09/20 05:37:59;;;;;;;5.60;3.70;;;;;;;10.67;66.32;102777.31;6213889;28;20221;-72
2021/09/20 05:41:03;;;;;;;4.35;4.03;;;;;;;10.61;66.49;102780.69;6214085;28;20257;-72
2021/09/20 05:44:07;;;;;;;3.47;3.38;;;;;;;10.58;66.55;102781.03;6213147;28;20528;-72
2021/09/20 05:47:13;;;;;;;4.30;3.45;;;;;;;10.45;67.12;102786.19;6214149;28;20249;-71
2021/09/20 05:50:19;;;;;;;4.05;3.85;;;;;;;10.46;67.88;102787.84;6212796;28;20454;-72
2021/09/20 05:53:23;;;;;;;3.63;3.53;;;;;;;10.51;68.30;102785.47;6213859;28;20241;-72
2021/09/20 05:56:29;;;;;;;3.65;3.55;;;;;;;10.46;67.70;102782.41;6213085;28;20194;-71
2021/09/20 05:59:35;;;;;;;3.90;3.70;;;;;;;10.31;68.35;102789.56;6213512;28;20233;-71
2021/09/20 06:02:42;;;;;;;3.80;3.60;;;;;;;10.24;67.87;102793.97;6213705;28;20249;-72
2021/09/20 06:05:48;;;;;;;4.15;3.85;;;;;;;10.26;69.00;102787.34;6212648;28;20377;-71
2021/09/20 06:08:52;;;;;;;4.43;4.20;;;;;;;10.38;68.23;102790.56;6213192;28;20193;-72
2021/09/20 06:11:56;;;;;;;3.90;3.70;;;;;;;10.36;68.20;102795.34;6213868;28;20297;-71
2021/09/20 06:15:05;;;;;;;4.72;3.80;;;;;;;10.39;68.33;102781.38;6212265;28;20445;-72
2021/09/20 06:18:13;;;;;;;3.97;3.80;;;;;;;10.49;67.52;102787.53;6213923;28;20193;-72
2021/09/20 06:21:17;;;;;;;4.07;3.88;;;;;;;10.51;67.66;102780.88;6212606;28;20241;-72
2021/09/20 06:24:21;;;;;;;3.75;3.47;;;;;;;10.39;67.66;102786.84;6213509;28;20190;-71
2021/09/20 06:27:26;;;;;;;4.30;4.00;;;;;;;10.45;67.89;102786.19;6213158;28;20224;-71
2021/09/20 06:30:30;;;;;;;4.82;4.47;;;;;;;10.41;67.47;102790.25;6212048;28;20369;-71
2021/09/20 06:33:36;;;;;;;4.10;3.90;;;;;;;10.42;67.80;102791.97;6211293;28;20221;-72
2021/09/20 06:36:40;;;;;;;4.57;4.18;;;;;;;10.50;67.97;102795.53;6212115;28;20244;-72
2021/09/20 06:39:44;;;;;;;3.88;3.67;;;;;;;10.58;68.36;102802.88;6212684;28;20217;-71
2021/09/20 06:42:48;;;;;;;4.80;3.83;;;;;;;10.38;68.04;102806.94;6212024;28;20537;-71
2021/09/20 06:45:53;;;;;;;4.22;4.03;;;;;;;10.43;69.01;102804.56;6212897;28;20244;-71
2021/09/20 06:48:58;;;;;;;4.85;4.18;;;;;;;10.49;68.49;102798.44;6213205;28;20254;-71
2021/09/20 06:52:02;;;;;;;4.07;3.78;;;;;;;10.43;68.32;102799.13;6212892;28;20265;-71
2021/09/20 06:55:08;;;;;;;5.07;4.00;;;;;;;10.36;68.76;102803.53;6213060;28;20256;-71
2021/09/20 06:58:12;;;;;;;4.63;4.22;;;;;;;10.44;68.84;102798.09;6211910;28;20258;-71
2021/09/20 07:01:17;;;;;;;3.83;3.72;;;;;;;10.59;69.84;102804.59;6212776;28;20324;-72
2021/09/20 07:04:23;;;;;;;4.78;4.38;;;;;;;10.66;68.20;102811.06;6213184;28;20258;-72
2021/09/20 07:07:27;;;;;;;4.47;4.18;;;;;;;10.67;68.19;102796.41;6212997;28;20237;-71
2021/09/20 07:10:31;;;;;;;4.57;4.28;;;;;;;10.60;68.37;102798.13;6213286;28;20357;-72
2021/09/20 07:13:35;;;;;;;4.30;4.10;;;;;;;10.58;68.85;102805.59;6211742;28;20474;-72
2021/09/20 07:16:41;;;;;;;4.38;4.03;;;;;;;10.56;69.15;102799.47;6212889;28;20210;-72
2021/09/20 07:19:46;;;;;;;4.60;4.22;;;;;;;10.58;68.85;102797.41;6213079;28;20257;-73
2021/09/20 07:22:50;;;;;;;4.30;4.13;;;;;;;10.63;69.52;102805.97;6212935;28;20253;-71
2021/09/20 07:25:54;;;;;;;4.65;4.35;;;;;;;10.52;68.73;102801.69;6212689;28;20190;-72
2021/09/20 07:28:59;;;;;;;4.38;3.97;;;;;;;10.45;68.95;102797.09;6212951;28;20265;-73
2021/09/20 07:32:04;;;;;;;4.15;4.00;;;;;;;10.51;69.33;102802.72;6211625;28;20249;-72
2021/09/20 07:35:12;;;;;;;6.65;4.40;;;;;;;10.42;69.88;102802.88;6211607;28;20529;-71
2021/09/20 07:38:17;;;;;;;4.75;4.07;;;;;;;10.49;69.85;102803.91;6212642;28;20194;-72
2021/09/20 07:41:21;;;;;;;3.97;3.78;;;;;;;10.58;69.83;102802.88;6211728;28;20187;-71
2021/09/20 07:44:25;;;;;;;4.15;3.85;;;;;;;10.56;69.77;102804.94;6212592;28;20230;-72
2021/09/20 07:47:29;;;;;;;4.85;4.40;;;;;;;10.62;70.05;102807.00;6215699;28;20430;-71
2021/09/20 07:50:35;;;;;;;4.78;3.80;;;;;;;10.61;70.84;102802.53;6215798;28;20253;-72
2021/09/20 07:53:39;;;;;;;4.57;4.28;;;;;;;10.57;71.07;102814.84;6215607;28;20444;-72
2021/09/20 07:56:43;;;;;;;6.13;4.20;;;;;;;10.52;70.63;102809.03;6215875;28;20481;-72
2021/09/20 07:59:47;;;;;;;4.30;4.00;;;;;;;10.61;70.78;102818.91;6215643;28;20405;-72
2021/09/20 08:02:52;;;;;;;4.97;4.18;;;;;;;10.40;71.76;102822.13;6215929;28;20242;-72
2021/09/20 08:05:58;;;;;;;4.97;3.72;;;;;;;10.44;71.99;102823.53;6216224;28;20200;-72
2021/09/20 08:09:02;;;;;;;4.63;4.25;;;;;;;10.62;72.42;102828.81;6216653;28;20254;-71
2021/09/20 08:12:07;;;;;;;4.20;4.10;;;;;;;10.51;72.22;102829.16;6215396;28;20373;-71
2021/09/20 08:15:12;;;;;;;6.40;3.50;;;;;;;10.56;72.33;102832.22;6216533;28;20214;-72
2021/09/20 08:18:17;;;;;;;3.97;3.88;;;;;;;10.56;72.19;102826.75;6216585;28;20186;-72
2021/09/20 08:21:22;;;;;;;4.40;4.30;;;;;;;10.48;71.78;102824.00;6215029;28;20186;-72
2021/09/20 08:24:26;;;;;;;4.50;4.10;;;;;;;10.58;72.11;102832.91;6216351;28;20190;-72
2021/09/20 08:27:31;;;;;;;4.25;4.05;;;;;;;10.49;72.09;102833.94;6215057;28;20280;-72
2021/09/20 08:30:35;;;;;;;4.47;4.20;;;;;;;10.47;71.59;102838.72;6214745;28;20186;-72
2021/09/20 08:33:40;;;;;;;3.85;3.65;;;;;;;10.45;71.97;102832.56;6215167;28;20186;-71
2021/09/20 08:36:45;;;;;;;4.18;3.88;;;;;;;10.48;71.69;102834.94;6215852;28;20249;-71
2021/09/20 08:39:49;;;;;;;4.18;3.92;;;;;;;10.67;71.65;102842.81;6215595;28;20186;-72
2021/09/20 08:42:55;;;;;;;4.82;4.47;;;;;;;10.60;71.15;102831.75;6216040;28;20186;-72
2021/09/20 08:46:03;;;;;;;4.47;4.07;;;;;;;10.79;70.69;102833.25;6214615;28;20197;-72
2021/09/20 08:49:08;;;;;;;3.92;3.53;;;;;;;10.63;71.83;102830.53;6214235;28;20474;-72
2021/09/20 08:52:14;;;;;;;3.60;3.50;;;;;;;10.58;71.96;102824.72;6216101;28;20282;-72
2021/09/20 08:55:18;;;;;;;5.00;4.50;;;;;;;10.80;71.81;102824.06;6215387;28;20214;-72
2021/09/20 08:58:22;;;;;;;3.40;3.30;;;;;;;10.52;71.61;102830.88;6215105;28;20264;-72
2021/09/20 09:01:27;;;;;;;3.50;3.40;;;;;;;10.50;71.68;102832.91;6213989;28;20472;-72
2021/09/20 09:04:33;;;;;;;3.78;3.60;;;;;;;10.38;72.19;102835.09;6215442;28;20222;-72
2021/09/20 09:07:43;;;;;;;4.32;4.03;;;;;;;10.49;72.28;102825.75;6214219;28;20187;-71
2021/09/20 09:11:00;;;;;;;4.28;4.05;;;;;;;10.67;71.56;102826.44;6214144;28;20540;-72
2021/09/20 09:14:04;;;;;;;8.27;4.00;;;;;;;10.64;71.94;102829.50;6215065;28;20191;-72
2021/09/20 09:17:20;;;;;;;4.28;3.88;;;;;;;10.77;71.43;102824.41;6214720;28;20225;-71
2021/09/20 09:20:26;;;;;;;3.88;3.63;;;;;;;10.89;70.93;102827.66;6214849;28;20186;-72
2021/09/20 09:23:41;;;;;;;3.78;3.63;;;;;;;10.80;70.63;102829.53;6213795;28;20421;-71
2021/09/20 09:26:55;;;;;;;3.78;3.58;;;;;;;10.97;70.63;102827.63;6214801;28;20222;-71
2021/09/20 09:30:19;;;;;;;5.57;3.88;;;;;;;11.11;70.27;102827.81;6214799;28;20254;-72
2021/09/20 09:33:25;;;;;;;5.10;3.67;;;;;;;11.10;70.14;102828.81;6214382;28;20233;-71
2021/09/20 09:36:32;;;;;;;3.75;3.55;;;;;;;11.09;70.01;102824.38;6213063;28;20446;-71
2021/09/20 09:39:37;;;;;;;3.35;3.25;;;;;;;11.13;69.64;102831.22;6214363;28;20257;-71
2021/09/20 09:42:43;;;;;;;3.30;3.10;;;;;;;10.96;70.03;102829.53;6213117;28;20359;-72
2021/09/20 09:45:47;;;;;;;3.45;3.35;;;;;;;11.05;70.20;102828.47;6213081;28;20196;-71
2021/09/20 09:48:53;;;;;;;4.78;3.30;;;;;;;10.94;70.42;102830.72;6213126;28;20186;-71
2021/09/20 09:52:01;;;;;;;5.93;3.42;;;;;;;11.12;70.58;102829.50;6214283;28;20217;-70
2021/09/20 09:55:07;;;;;;;3.90;3.58;;;;;;;11.20;70.53;102832.22;6213796;28;20233;-72
2021/09/20 09:58:15;;;;;;;4.00;3.60;;;;;;;11.32;69.71;102830.81;6213558;28;20249;-72
2021/09/20 10:01:21;;;;;;;3.60;3.40;;;;;;;11.23;69.54;102823.69;6213279;28;20264;-72
2021/09/20 10:04:30;;;;;;;3.28;3.15;;;;;;;11.28;69.50;102824.00;6213753;28;20254;-72
2021/09/20 10:07:36;;;;;;;5.45;3.25;;;;;;;11.26;69.40;102831.53;6214058;28;20314;-73
2021/09/20 10:10:42;;;;;;;3.67;3.47;;;;;;;11.17;69.44;102827.09;6215586;28;20186;-71
2021/09/20 10:13:49;;;;;;;3.65;3.17;;;;;;;11.27;70.02;102821.47;6212489;28;20186;-72
2021/09/20 10:16:55;;;;;;;3.25;2.83;;;;;;;11.36;68.74;102825.00;6213834;28;20286;-72
2021/09/20 10:20:01;;;;;;;4.53;3.17;;;;;;;11.39;69.39;102824.66;6213641;28;20186;-72
2021/09/20 10:23:06;;;;;;;3.10;3.00;;;;;;;11.32;68.09;102825.34;6211970;28;20342;-72
2021/09/20 10:26:14;;;;;;;3.40;3.20;;;;;;;11.36;68.67;102830.47;6213392;28;20191;-72
2021/09/20 10:29:20;;;;;;;3.20;3.00;;;;;;;11.41;68.59;102825.34;6212484;28;20459;-72
2021/09/20 10:32:27;;;;;;;2.80;2.70;;;;;;;11.55;68.53;102828.22;6213395;28;20250;-72
2021/09/20 10:35:34;;;;;;;2.95;2.75;;;;;;;11.52;68.51;102819.50;6213215;28;20273;-72
2021/09/20 10:38:39;;;;;;;3.28;3.08;;;;;;;11.59;67.48;102823.25;6211892;28;20273;-72
2021/09/20 10:41:44;;;;;;;2.72;2.60;;;;;;;11.69;68.12;102821.19;6212445;28;20412;-72
2021/09/20 10:44:48;;;;;;;4.63;3.00;;;;;;;11.79;67.13;102811.75;6213112;28;20186;-72
2021/09/20 10:47:52;;;;;;;2.97;2.88;;;;;;;11.74;66.73;102808.69;6212922;28;20225;-72
2021/09/20 10:51:00;;;;;;;3.00;2.90;;;;;;;11.85;66.55;102810.19;6212905;28;20249;-71
2021/09/20 10:54:20;;;;;;;3.05;2.88;;;;;;;11.61;66.32;102807.50;6212810;28;20193;-71
2021/09/20 10:57:26;;;;;;;3.00;2.90;;;;;;;11.51;67.41;102801.41;6212097;28;20540;-71
2021/09/20 11:00:30;;;;;;;2.80;2.70;;;;;;;11.54;66.45;102811.97;6212831;28;20206;-72
2021/09/20 11:03:41;;;;;;;2.80;2.70;;;;;;;11.52;66.35;102814.03;6213024;28;20249;-72
2021/09/20 11:07:04;;;;;;;2.88;2.67;;;;;;;11.60;66.29;102805.81;6211845;28;20474;-72
2021/09/20 11:10:10;;;;;;;2.60;2.50;;;;;;;11.56;66.62;102807.19;6211913;28;20380;-72
2021/09/20 11:13:18;;;;;;;3.97;2.92;;;;;;;11.57;66.72;102808.91;6213022;28;20186;-71
2021/09/20 11:16:46;;;;;;;3.47;3.17;;;;;;;11.44;66.40;102816.78;6212694;28;20241;-72
2021/09/20 11:19:53;;;;;;;2.85;2.70;;;;;;;11.27;66.46;102810.53;6213437;28;20190;-72
2021/09/20 11:23:19;;;;;;;2.80;2.60;;;;;;;11.38;66.69;102807.41;6216944;28;20217;-71
2021/09/20 11:26:25;;;;;;;2.90;2.80;;;;;;;11.31;67.02;102817.34;6213473;28;20206;-71
2021/09/20 11:29:31;;;;;;;3.13;3.03;;;;;;;11.29;66.67;102801.13;6216280;28;20352;-72
2021/09/20 11:32:43;;;;;;;3.63;2.60;;;;;;;11.53;67.29;102796.63;6216137;28;20480;-71
2021/09/20 11:35:47;;;;;;;2.65;2.55;;;;;;;11.57;67.01;102811.63;6216794;28;20218;-72
2021/09/20 11:39:08;;;;;;;2.78;2.63;;;;;;;11.67;67.52;102806.81;6216601;28;20354;-71
2021/09/20 11:42:15;;;;;;;2.80;2.70;;;;;;;11.60;67.47;102789.41;6217386;28;20277;-72
2021/09/20 11:45:23;;;;;;;3.22;2.70;;;;;;;11.56;66.96;102782.56;6215952;28;20489;-72
2021/09/20 11:48:27;;;;;;;2.90;2.70;;;;;;;11.50;66.68;102796.97;6215801;28;20626;-72
2021/09/20 11:51:32;;;;;;;7.13;2.63;;;;;;;11.46;67.03;102804.66;6216664;28;20190;-72
2021/09/20 11:54:38;;;;;;;7.07;3.03;;;;;;;11.44;67.29;102792.19;6216779;28;20186;-71
2021/09/20 11:57:43;;;;;;;3.17;3.08;;;;;;;11.53;67.27;102793.91;6216450;28;20249;-71
2021/09/20 12:00:55;;;;;;;2.90;2.80;;;;;;;11.69;67.28;102782.91;6215720;28;20465;-72
2021/09/20 12:04:00;;;;;;;3.10;2.88;;;;;;;11.78;66.14;102781.84;6216509;28;20226;-72
2021/09/20 12:07:04;;;;;;;2.88;2.70;;;;;;;11.90;66.01;102785.88;6216533;28;20190;-73
2021/09/20 12:10:09;;;;;;;2.75;2.65;;;;;;;11.79;65.25;102778.94;6215189;28;20513;-72
2021/09/20 12:13:17;;;;;;;2.67;2.67;;;;;;;11.69;66.06;102771.97;6215982;28;20201;-72
2021/09/20 12:16:26;;;;;;;2.53;2.40;;;;;;;11.59;65.15;102777.63;6215257;28;20504;-71
2021/09/20 12:19:30;;;;;;;2.47;2.45;;;;;;;11.43;65.20;102771.38;6216232;28;20194;-72
2021/09/20 12:22:43;;;;;;;2.92;2.75;;;;;;;11.27;65.01;102773.09;6215990;28;20281;-71
2021/09/20 12:25:49;;;;;;;2.90;2.80;;;;;;;11.45;66.09;102769.31;6216157;28;20187;-71
2021/09/20 12:28:56;;;;;;;3.38;2.90;;;;;;;11.63;66.24;102778.13;6216239;28;20269;-72
2021/09/20 12:32:02;;;;;;;3.13;3.00;;;;;;;11.53;64.95;102772.03;6213621;28;20440;-71
2021/09/20 12:35:08;;;;;;;2.88;2.60;;;;;;;11.53;65.62;102777.50;6215968;28;20330;-72
2021/09/20 12:38:31;;;;;;;2.97;2.90;;;;;;;11.62;64.91;102768.22;6214786;28;20383;-72
2021/09/20 12:41:38;;;;;;;2.50;2.47;;;;;;;11.48;65.41;102763.50;6214708;28;20386;-72
2021/09/20 12:44:44;;;;;;;2.97;2.88;;;;;;;11.40;66.10;102761.63;6214687;28;20218;-72
2021/09/20 12:47:57;;;;;;;2.90;2.70;;;;;;;11.66;65.56;102755.88;6215443;28;20269;-72
2021/09/20 12:51:04;;;;;;;3.33;3.17;;;;;;;11.57;66.40;102754.22;6215475;28;20187;-72
2021/09/20 12:54:27;;;;;;;6.50;3.15;;;;;;;11.38;66.03;102751.88;6215714;28;20193;-72
2021/09/20 12:57:31;;;;;;;2.65;2.55;;;;;;;11.47;68.14;102746.25;6215313;28;20241;-72
2021/09/20 13:00:37;;;;;;;3.28;3.03;;;;;;;11.56;66.53;102749.78;6214359;28;20206;-72
2021/09/20 13:03:43;;;;;;;5.05;3.13;;;;;;;11.78;66.82;102757.25;6215374;28;20233;-72
2021/09/20 13:07:02;;;;;;;6.20;2.60;;;;;;;11.71;66.53;102754.34;6214390;28;20221;-72
2021/09/20 13:10:09;;;;;;;2.45;2.45;;;;;;;11.76;66.28;102745.63;6215130;28;20202;-72
2021/09/20 13:13:30;;;;;;;2.80;2.60;;;;;;;11.78;65.51;102743.56;6215202;28;20187;-72
2021/09/20 13:16:38;;;;;;;4.88;2.47;;;;;;;11.93;66.27;102744.50;6214715;28;20186;-72
2021/09/20 13:20:03;;;;;;;2.85;2.63;;;;;;;11.93;65.49;102741.78;6213843;28;20186;-72
2021/09/20 13:23:10;;;;;;;3.20;3.10;;;;;;;11.89;65.61;102733.06;6213577;28;20452;-73
2021/09/20 13:26:14;;;;;;;5.43;2.60;;;;;;;11.67;65.77;102741.19;6214365;28;20233;-72
2021/09/20 13:29:19;;;;;;;2.72;2.70;;;;;;;11.94;66.00;102737.97;6214311;28;20281;-70
2021/09/20 13:32:24;;;;;;;2.75;2.65;;;;;;;11.94;65.50;102738.84;6214649;28;20191;-71
2021/09/20 13:35:33;;;;;;;2.67;2.67;;;;;;;11.80;65.10;102730.56;6213316;28;20250;-72
2021/09/20 13:38:39;;;;;;;2.67;2.58;;;;;;;11.74;66.42;102732.13;6213431;28;20218;-72
2021/09/20 13:41:43;;;;;;;2.47;2.38;;;;;;;11.89;65.06;102740.41;6212989;28;20240;-72
2021/09/20 13:44:47;;;;;;;4.55;2.50;;;;;;;12.48;62.28;102725.97;6212783;28;20417;-72
2021/09/20 13:47:51;;;;;;;2.63;2.40;;;;;;;12.53;63.22;102739.94;6212868;28;20198;-72
2021/09/20 13:50:57;;;;;;;2.63;2.60;;;;;;;13.33;60.25;102721.00;6212848;28;20434;-71
2021/09/20 13:54:03;;;;;;;2.58;2.42;;;;;;;12.93;61.62;102726.91;6214231;28;20186;-72
2021/09/20 13:57:07;;;;;;;2.20;2.10;;;;;;;12.70;62.11;102742.56;6213320;28;20193;-72
2021/09/20 14:00:13;;;;;;;2.30;2.20;;;;;;;13.00;61.13;102722.38;6214036;28;20209;-72
2021/09/20 14:03:17;;;;;;;2.65;2.55;;;;;;;12.71;62.78;102725.91;6213626;28;20229;-72
2021/09/20 14:06:24;;;;;;;3.33;2.00;;;;;;;13.40;59.03;102723.88;6212486;28;20277;-71
2021/09/20 14:09:28;;;;;;;2.97;2.85;;;;;;;12.58;62.26;102732.03;6213407;28;20190;-71
2021/09/20 14:12:32;;;;;;;2.40;2.20;;;;;;;12.30;62.70;102728.16;6212575;28;20501;-72
2021/09/20 14:15:37;;;;;;;2.08;2.08;;;;;;;12.20;63.25;102724.81;6213385;28;20274;-72
2021/09/20 14:18:42;;;;;;;3.72;2.47;;;;;;;12.30;63.58;102722.69;6213258;28;20272;-72
2021/09/20 14:21:47;;;;;;;3.00;2.10;;;;;;;12.22;60.72;102725.47;6213182;28;20192;-71
2021/09/20 14:24:52;;;;;;;2.25;2.15;;;;;;;12.09;60.33;102730.72;6212195;28;20453;-72